Terminal Aerodrome Forecast
Issued by NWS Paducah, KY

Home | Current Version | Previous Version | Text Only | Print | Product List | Glossary On
Versions: 1 2 3 4 5 6 7 8 9 10 11 12 13 14 15 16 17 18 19 20 21 22
000
FTUS43 KPAH 210834 AAD
TAFEVV
TAF AMD
KEVV 210834Z 2109/2206 15003KT 1SM BR SCT002 OVC250
      TEMPO 2109/2113 3SM BR BKN250
     FM211300 20010G18KT P6SM BKN250
     FM220000 18006KT P6SM SCT040 OVC100=

USA.gov is the U.S. government's official web portal to all federal, state and local government web resources and services.